createdAt,value
2022-12-04T00:02:12.115Z,2.65
2022-12-04T00:04:38.672Z,2.68
2022-12-04T00:07:05.436Z,2.64
2022-12-04T00:09:31.824Z,2.38
2022-12-04T00:11:58.221Z,2.38
2022-12-04T00:14:24.625Z,2.34
2022-12-04T00:16:51.182Z,2.48
2022-12-04T00:19:17.828Z,2.53
2022-12-04T00:21:44.277Z,2.66
2022-12-04T00:24:10.694Z,2.60
2022-12-04T00:26:37.560Z,2.52
2022-12-04T00:29:03.941Z,2.47
2022-12-04T00:31:31.537Z,2.59
2022-12-04T00:33:58.517Z,2.62
2022-12-04T00:36:25.052Z,2.54
2022-12-04T00:38:51.471Z,2.79
2022-12-04T00:41:17.887Z,2.79
2022-12-04T00:43:44.336Z,2.61
2022-12-04T00:46:10.865Z,2.60
2022-12-04T00:48:37.381Z,2.71
2022-12-04T00:51:03.781Z,2.56
2022-12-04T00:53:30.264Z,2.53
2022-12-04T00:55:56.635Z,2.46
2022-12-04T00:58:23.532Z,2.52
2022-12-04T01:00:49.945Z,2.32
2022-12-04T01:03:16.856Z,2.14
2022-12-04T01:05:43.388Z,1.98
2022-12-04T01:08:13.111Z,2.13
2022-12-04T01:10:39.566Z,2.33
2022-12-04T01:13:06.107Z,2.21
2022-12-04T01:15:32.832Z,2.20
2022-12-04T01:17:59.394Z,2.40
2022-12-04T01:20:28.239Z,2.45
2022-12-04T01:22:54.874Z,2.55
2022-12-04T01:25:21.315Z,2.37
2022-12-04T01:27:47.813Z,2.36
2022-12-04T01:30:14.176Z,2.57
2022-12-04T01:32:40.522Z,2.78
2022-12-04T01:35:08.227Z,2.80
2022-12-04T01:37:34.651Z,2.79
2022-12-04T01:40:03.080Z,2.79
2022-12-04T01:42:29.512Z,2.82
2022-12-04T01:44:55.916Z,2.73
2022-12-04T01:47:22.568Z,2.78
2022-12-04T01:49:49.461Z,2.84
2022-12-04T01:52:15.921Z,2.78
2022-12-04T01:54:42.866Z,2.66
2022-12-04T01:57:09.370Z,2.89
2022-12-04T01:59:36.743Z,2.84
2022-12-04T02:02:03.292Z,2.69
2022-12-04T02:04:31.466Z,2.91
2022-12-04T02:06:58.072Z,2.85
2022-12-04T02:09:26.744Z,2.64
2022-12-04T02:11:53.767Z,2.42
2022-12-04T02:14:20.670Z,2.64
2022-12-04T02:16:47.273Z,2.78
2022-12-04T02:19:14.118Z,2.81
2022-12-04T02:21:40.640Z,2.80
2022-12-04T02:24:07.691Z,2.73
2022-12-04T02:26:36.494Z,2.74
2022-12-04T02:29:03.071Z,2.93
2022-12-04T02:31:29.974Z,2.85
2022-12-04T02:33:56.566Z,2.62
2022-12-04T02:36:23.065Z,2.57
2022-12-04T02:38:49.481Z,2.78
2022-12-04T02:41:16.331Z,2.61
2022-12-04T02:43:43.115Z,2.73
2022-12-04T02:46:09.591Z,2.92
2022-12-04T02:48:36.127Z,2.84
2022-12-04T02:51:03.299Z,2.78
2022-12-04T02:53:29.675Z,2.77
2022-12-04T02:55:56.094Z,2.82
2022-12-04T02:58:22.452Z,2.63
2022-12-04T03:00:48.862Z,2.39
2022-12-04T03:03:15.310Z,2.27
2022-12-04T03:05:41.725Z,2.52
2022-12-04T03:08:08.333Z,2.63
2022-12-04T03:10:36.216Z,2.62
2022-12-04T03:13:03.099Z,2.81
2022-12-04T03:15:29.641Z,2.61
2022-12-04T03:17:56.999Z,2.60
2022-12-04T03:20:23.819Z,2.75
2022-12-04T03:22:50.906Z,2.71
2022-12-04T03:25:17.289Z,2.79
2022-12-04T03:27:43.704Z,2.95
2022-12-04T03:30:10.105Z,3.05
2022-12-04T03:32:36.694Z,3.06
2022-12-04T03:35:03.182Z,2.99
2022-12-04T03:37:29.603Z,3.07
2022-12-04T03:39:56.472Z,2.92
2022-12-04T03:42:23.228Z,3.02
2022-12-04T03:44:49.599Z,2.95
2022-12-04T03:47:16.011Z,2.89
2022-12-04T03:49:42.446Z,2.82
2022-12-04T03:52:09.151Z,2.69
2022-12-04T03:54:35.729Z,2.66
2022-12-04T03:57:02.133Z,2.67
2022-12-04T03:59:28.565Z,2.75
2022-12-04T04:01:55.555Z,2.87
2022-12-04T04:04:22.008Z,2.96
2022-12-04T04:06:48.646Z,2.58
2022-12-04T04:09:15.158Z,2.66
2022-12-04T04:11:41.484Z,2.83
2022-12-04T04:14:08.327Z,2.85
2022-12-04T04:16:34.898Z,2.93
2022-12-04T04:19:01.277Z,3.07
2022-12-04T04:21:27.651Z,3.15
2022-12-04T04:23:54.158Z,3.06
2022-12-04T04:26:21.062Z,3.05
2022-12-04T04:28:47.551Z,3.17
2022-12-04T04:31:13.987Z,3.06
2022-12-04T04:33:40.386Z,2.90
2022-12-04T04:36:06.860Z,2.95
2022-12-04T04:38:34.032Z,2.79
2022-12-04T04:41:00.422Z,2.71
2022-12-04T04:43:27.067Z,3.00
2022-12-04T04:45:53.477Z,2.94
2022-12-04T04:48:19.858Z,2.91
2022-12-04T04:50:46.405Z,2.81
2022-12-04T04:53:12.826Z,2.54
2022-12-04T04:55:39.223Z,2.66
2022-12-04T04:58:05.647Z,2.70
2022-12-04T05:00:32.084Z,2.79
2022-12-04T05:02:58.787Z,2.80
2022-12-04T05:05:25.378Z,2.83
2022-12-04T05:07:51.848Z,2.82
2022-12-04T05:10:18.384Z,2.73
2022-12-04T05:12:44.971Z,2.83
2022-12-04T05:15:13.727Z,2.90
2022-12-04T05:17:40.105Z,3.00
2022-12-04T05:20:06.647Z,2.76
2022-12-04T05:22:33.046Z,2.92
2022-12-04T05:24:59.386Z,2.72
2022-12-04T05:27:25.906Z,2.83
2022-12-04T05:29:52.614Z,2.78
2022-12-04T05:32:19.141Z,2.77
2022-12-04T05:34:45.560Z,2.93
2022-12-04T05:37:12.043Z,2.95
2022-12-04T05:39:38.590Z,3.20
2022-12-04T05:42:05.041Z,3.01
2022-12-04T05:44:31.465Z,2.85
2022-12-04T05:46:57.905Z,2.76
2022-12-04T05:49:24.474Z,2.71
2022-12-04T05:51:51.028Z,2.74
2022-12-04T05:54:17.551Z,2.90
2022-12-04T05:56:44.014Z,2.77
2022-12-04T05:59:10.577Z,2.41
2022-12-04T06:01:37.054Z,2.66
2022-12-04T06:04:03.657Z,2.78
2022-12-04T06:06:30.153Z,2.79
2022-12-04T06:08:56.598Z,2.64
2022-12-04T06:11:22.986Z,2.80
2022-12-04T06:13:49.420Z,2.55
2022-12-04T06:16:15.876Z,2.79
2022-12-04T06:18:42.384Z,2.98
2022-12-04T06:21:08.868Z,2.74
2022-12-04T06:23:35.271Z,2.75
2022-12-04T06:26:06.822Z,2.64
2022-12-04T06:28:33.627Z,2.67
2022-12-04T06:31:00.231Z,2.87
2022-12-04T06:33:26.666Z,2.83
2022-12-04T06:35:53.091Z,2.66
2022-12-04T06:38:19.445Z,2.49
2022-12-04T06:40:46.063Z,2.24
2022-12-04T06:43:12.429Z,2.44
2022-12-04T06:45:39.154Z,2.54
2022-12-04T06:48:05.809Z,2.49
2022-12-04T06:50:32.264Z,2.73
2022-12-04T06:53:02.322Z,2.84
2022-12-04T06:55:33.112Z,2.54
2022-12-04T06:57:59.546Z,2.48
2022-12-04T07:00:25.969Z,2.61
2022-12-04T07:02:52.741Z,2.66
2022-12-04T07:05:19.241Z,2.45
2022-12-04T07:07:45.744Z,2.72
2022-12-04T07:10:12.316Z,2.61
2022-12-04T07:12:38.731Z,2.58
2022-12-04T07:15:05.389Z,2.63
2022-12-04T07:17:32.763Z,2.56
2022-12-04T07:19:59.230Z,2.50
2022-12-04T07:22:25.681Z,2.58
2022-12-04T07:24:52.221Z,2.75
2022-12-04T07:27:18.630Z,2.79
2022-12-04T07:29:45.066Z,2.88
2022-12-04T07:32:11.525Z,2.86
2022-12-04T07:34:37.973Z,2.77
2022-12-04T07:37:04.389Z,2.61
2022-12-04T07:39:30.864Z,2.56
2022-12-04T07:41:57.355Z,2.57
2022-12-04T07:44:23.756Z,2.40
2022-12-04T07:46:50.273Z,2.48
2022-12-04T07:49:16.713Z,2.37
2022-12-04T07:51:43.272Z,2.66
2022-12-04T07:54:09.701Z,2.28
2022-12-04T07:56:36.082Z,2.31
2022-12-04T07:59:02.418Z,2.64
2022-12-04T08:01:29.359Z,2.50
2022-12-04T08:03:55.877Z,2.50
2022-12-04T08:06:22.315Z,2.53
2022-12-04T08:08:48.735Z,2.70
2022-12-04T08:11:15.125Z,2.62
2022-12-04T08:13:41.468Z,2.68
2022-12-04T08:16:08.010Z,2.70
2022-12-04T08:18:34.398Z,2.65
2022-12-04T08:21:01.055Z,2.62
2022-12-04T08:23:27.679Z,2.77
2022-12-04T08:25:54.593Z,2.43
2022-12-04T08:28:20.948Z,2.51
2022-12-04T08:30:47.426Z,2.51
2022-12-04T08:33:13.930Z,2.66
2022-12-04T08:35:40.984Z,2.76
2022-12-04T08:38:07.511Z,2.69
2022-12-04T08:40:34.093Z,2.74
2022-12-04T08:43:00.644Z,2.88
2022-12-04T08:45:27.158Z,2.93
2022-12-04T08:47:53.877Z,2.77
2022-12-04T08:50:20.494Z,2.72
2022-12-04T08:52:47.074Z,2.84
2022-12-04T08:55:13.650Z,2.68
2022-12-04T08:57:40.061Z,2.66
2022-12-04T09:00:07.226Z,2.79
2022-12-04T09:02:34.132Z,2.78
2022-12-04T09:05:00.541Z,2.53
2022-12-04T09:07:27.121Z,2.72
2022-12-04T09:09:53.806Z,2.87
2022-12-04T09:12:23.168Z,2.53
2022-12-04T09:14:52.918Z,2.62
2022-12-04T09:17:19.776Z,2.64
2022-12-04T09:19:46.813Z,2.54
2022-12-04T09:22:13.696Z,2.72
2022-12-04T09:24:41.070Z,2.36
2022-12-04T09:27:14.452Z,2.33
2022-12-04T09:29:41.901Z,2.50
2022-12-04T09:32:08.382Z,2.81
2022-12-04T09:34:39.733Z,2.74
2022-12-04T09:37:06.800Z,2.88
2022-12-04T09:39:35.464Z,2.86
2022-12-04T09:42:02.372Z,2.92
2022-12-04T09:44:29.285Z,2.96
2022-12-04T09:46:56.069Z,2.87
2022-12-04T09:49:22.905Z,2.88
2022-12-04T09:51:53.808Z,2.67
2022-12-04T09:54:20.340Z,2.70
2022-12-04T09:56:47.205Z,2.70
2022-12-04T09:59:14.126Z,2.77
2022-12-04T10:01:46.327Z,2.86
2022-12-04T10:04:13.649Z,2.91
2022-12-04T10:06:40.592Z,2.74
2022-12-04T10:09:07.466Z,2.94
2022-12-04T10:11:34.839Z,2.55
2022-12-04T10:14:01.941Z,2.66
2022-12-04T10:16:29.163Z,2.49
2022-12-04T10:18:55.706Z,2.52
2022-12-04T10:21:22.501Z,2.61
2022-12-04T10:23:49.344Z,2.67
2022-12-04T10:26:15.997Z,2.83
2022-12-04T10:28:42.364Z,2.71
2022-12-04T10:31:09.071Z,2.62
2022-12-04T10:33:35.975Z,2.54
2022-12-04T10:36:02.574Z,2.64
2022-12-04T10:38:28.965Z,2.57
2022-12-04T10:40:55.576Z,2.50
2022-12-04T10:43:22.379Z,2.57
2022-12-04T10:45:48.887Z,2.46
2022-12-04T10:48:17.316Z,2.27
2022-12-04T10:50:43.798Z,2.23
2022-12-04T10:53:13.721Z,2.71
2022-12-04T10:55:40.601Z,2.67
2022-12-04T10:58:07.026Z,2.46
2022-12-04T11:00:33.553Z,2.07
2022-12-04T11:03:00.216Z,2.38
2022-12-04T11:05:26.727Z,2.59
2022-12-04T11:07:53.155Z,2.51
2022-12-04T11:10:22.065Z,2.68
2022-12-04T11:12:48.518Z,2.77
2022-12-04T11:15:14.953Z,2.88
2022-12-04T11:17:41.422Z,2.86
2022-12-04T11:20:08.237Z,2.83
2022-12-04T11:22:34.739Z,2.69
2022-12-04T11:25:01.204Z,2.66
2022-12-04T11:27:27.670Z,2.67
2022-12-04T11:29:54.288Z,3.09
2022-12-04T11:32:21.378Z,3.12
2022-12-04T11:34:49.235Z,3.19
2022-12-04T11:37:16.245Z,3.21
2022-12-04T11:39:42.751Z,3.20
2022-12-04T11:42:10.694Z,3.10
2022-12-04T11:44:37.152Z,3.09
2022-12-04T11:47:04.998Z,3.02
2022-12-04T11:49:32.551Z,2.59
2022-12-04T11:51:59.895Z,2.47
2022-12-04T11:54:27.776Z,2.63
2022-12-04T11:56:56.383Z,2.63
2022-12-04T11:59:23.547Z,2.08
2022-12-04T12:01:56.282Z,2.31
2022-12-04T12:04:26.653Z,2.25
2022-12-04T12:06:53.105Z,2.24
2022-12-04T12:09:20.220Z,2.48
2022-12-04T12:11:47.722Z,2.45
2022-12-04T12:14:14.166Z,2.39
2022-12-04T12:16:40.769Z,2.36
2022-12-04T12:19:07.726Z,2.29
2022-12-04T12:21:35.387Z,2.59
2022-12-04T12:24:02.191Z,2.71
2022-12-04T12:26:29.923Z,2.64
2022-12-04T12:28:56.446Z,2.71
2022-12-04T12:31:23.559Z,2.82
2022-12-04T12:33:51.552Z,3.11
2022-12-04T12:36:19.770Z,3.23
2022-12-04T12:38:46.453Z,3.16
2022-12-04T12:41:13.545Z,3.15
2022-12-04T12:43:40.641Z,2.92
2022-12-04T12:46:07.550Z,2.96
2022-12-04T12:48:34.799Z,3.14
2022-12-04T12:51:28.564Z,3.14
2022-12-04T12:53:48.812Z,3.04
2022-12-04T12:56:15.347Z,3.12
2022-12-04T12:58:42.252Z,2.59
2022-12-04T13:01:09.471Z,2.70
2022-12-04T13:03:37.030Z,2.59
2022-12-04T13:06:03.743Z,2.58
2022-12-04T13:08:30.272Z,2.67
2022-12-04T13:10:56.666Z,2.79
2022-12-04T13:13:23.096Z,2.55
2022-12-04T13:15:50.264Z,2.69
2022-12-04T13:18:16.614Z,2.58
2022-12-04T13:20:43.090Z,2.69
2022-12-04T13:23:11.955Z,2.78
2022-12-04T13:25:38.570Z,2.76
2022-12-04T13:28:05.222Z,2.73
2022-12-04T13:30:31.654Z,2.62
2022-12-04T13:32:58.341Z,2.63
2022-12-04T13:35:24.893Z,2.56
2022-12-04T13:37:51.262Z,2.67
2022-12-04T13:40:17.687Z,2.77
2022-12-04T13:42:46.421Z,2.69
2022-12-04T13:45:12.946Z,2.68
2022-12-04T13:47:39.455Z,2.75
2022-12-04T13:50:06.630Z,2.77
2022-12-04T13:52:33.063Z,2.64
2022-12-04T13:54:59.488Z,2.81
2022-12-04T13:57:25.994Z,2.91
2022-12-04T13:59:52.344Z,2.84
2022-12-04T14:02:18.814Z,2.86
2022-12-04T14:04:45.421Z,2.84
2022-12-04T14:07:12.354Z,2.69
2022-12-04T14:09:39.235Z,2.61
2022-12-04T14:12:09.364Z,2.69
2022-12-04T14:14:36.101Z,2.71
2022-12-04T14:17:02.527Z,2.64
2022-12-04T14:19:29.831Z,2.43
2022-12-04T14:21:56.610Z,2.60
2022-12-04T14:24:23.133Z,2.56
2022-12-04T14:27:10.582Z,2.22
2022-12-04T14:29:38.648Z,2.47
2022-12-04T14:32:06.655Z,2.50
2022-12-04T14:34:33.203Z,2.59
2022-12-04T14:37:00.048Z,2.31
2022-12-04T14:39:26.852Z,2.35
2022-12-04T14:42:00.417Z,2.32
2022-12-04T14:44:31.047Z,2.33
2022-12-04T14:46:58.060Z,2.10
2022-12-04T14:49:27.873Z,2.23
2022-12-04T14:51:56.588Z,2.04
2022-12-04T14:54:23.345Z,2.16
2022-12-04T14:56:50.389Z,2.35
2022-12-04T14:59:17.359Z,2.49
2022-12-04T15:01:44.129Z,2.37
2022-12-04T15:04:13.651Z,2.12
2022-12-04T15:06:40.513Z,2.35
2022-12-04T15:09:07.064Z,2.22
2022-12-04T15:11:34.260Z,2.09
2022-12-04T15:14:01.181Z,2.06
2022-12-04T15:16:30.246Z,2.16
2022-12-04T15:18:57.165Z,2.23
2022-12-04T15:21:24.067Z,2.43
2022-12-04T15:23:51.473Z,2.22
2022-12-04T15:26:18.206Z,2.17
2022-12-04T15:28:45.163Z,2.38
2022-12-04T15:31:11.760Z,2.46
2022-12-04T15:33:38.645Z,2.24
2022-12-04T15:36:06.569Z,1.96
2022-12-04T15:38:34.025Z,2.22
2022-12-04T15:41:01.427Z,2.27
2022-12-04T15:43:30.645Z,2.33
2022-12-04T15:45:57.551Z,2.19
2022-12-04T15:48:24.602Z,2.38
2022-12-04T15:50:51.538Z,2.50
2022-12-04T15:53:18.500Z,2.53
2022-12-04T15:55:45.546Z,2.31
2022-12-04T15:58:12.642Z,2.19
2022-12-04T16:00:39.517Z,2.31
2022-12-04T16:03:07.264Z,2.17
2022-12-04T16:05:33.867Z,2.29
2022-12-04T16:08:01.050Z,2.42
2022-12-04T16:10:28.493Z,2.29
2022-12-04T16:12:55.480Z,2.21
2022-12-04T16:15:22.421Z,2.32
2022-12-04T16:17:49.169Z,2.40
2022-12-04T16:20:16.640Z,2.32
2022-12-04T16:22:44.619Z,2.36
2022-12-04T16:25:12.504Z,2.51
2022-12-04T16:27:39.293Z,2.44
2022-12-04T16:30:06.231Z,2.35
2022-12-04T16:32:33.152Z,2.48
2022-12-04T16:35:00.139Z,2.70
2022-12-04T16:37:28.129Z,2.56
2022-12-04T16:39:54.597Z,2.53
2022-12-04T16:42:21.522Z,2.40
2022-12-04T16:44:47.921Z,2.59
2022-12-04T16:47:14.876Z,2.63
2022-12-04T16:49:42.217Z,2.58
2022-12-04T16:52:09.258Z,2.67
2022-12-04T16:54:36.205Z,2.54
2022-12-04T16:57:07.188Z,2.44
2022-12-04T16:59:34.207Z,2.57
2022-12-04T17:02:02.133Z,2.49
2022-12-04T17:04:29.478Z,2.03
2022-12-04T17:06:56.612Z,2.12
2022-12-04T17:09:28.127Z,2.34
2022-12-04T17:11:55.019Z,1.91
2022-12-04T17:14:21.677Z,1.85
2022-12-04T17:16:48.442Z,1.98
2022-12-04T17:19:21.002Z,2.11
2022-12-04T17:21:48.035Z,2.05
2022-12-04T17:24:15.118Z,2.20
2022-12-04T17:26:42.853Z,2.22
2022-12-04T17:29:13.055Z,2.40
2022-12-04T17:31:39.629Z,2.24
2022-12-04T17:34:06.336Z,2.12
2022-12-04T17:36:33.278Z,2.22
2022-12-04T17:39:00.633Z,2.34
2022-12-04T17:41:27.414Z,2.49
2022-12-04T17:43:54.265Z,2.25
2022-12-04T17:46:21.556Z,2.19
2022-12-04T17:48:52.313Z,2.27
2022-12-04T17:51:21.256Z,2.37
2022-12-04T17:53:47.766Z,2.10
2022-12-04T17:56:14.631Z,2.23
2022-12-04T17:58:41.507Z,2.14
2022-12-04T18:01:10.730Z,2.00
2022-12-04T18:03:37.849Z,2.09
2022-12-04T18:08:49.834Z,1.99
2022-12-04T18:11:18.565Z,2.25
2022-12-04T18:13:50.376Z,2.08
2022-12-04T18:16:22.370Z,2.12
2022-12-04T18:18:49.644Z,2.28
2022-12-04T18:21:18.609Z,2.12
2022-12-04T18:23:48.149Z,2.23
2022-12-04T18:26:14.823Z,2.29
2022-12-04T18:28:41.832Z,2.14
2022-12-04T18:31:08.801Z,2.37
2022-12-04T18:33:35.895Z,2.38
2022-12-04T18:36:03.900Z,2.39
2022-12-04T18:38:30.990Z,2.31
2022-12-04T18:40:59.111Z,2.11
2022-12-04T18:43:28.936Z,1.97
2022-12-04T18:46:01.432Z,2.07
2022-12-04T18:48:33.042Z,2.24
2022-12-04T18:51:02.040Z,2.34
2022-12-04T18:53:28.578Z,1.92
2022-12-04T18:55:54.951Z,2.03
2022-12-04T18:58:21.675Z,2.08
2022-12-04T19:00:48.452Z,1.99
2022-12-04T19:03:16.129Z,2.23
2022-12-04T19:05:43.112Z,2.26
2022-12-04T19:08:11.344Z,2.51
2022-12-04T19:10:38.463Z,2.29
2022-12-04T19:13:05.707Z,2.36
2022-12-04T19:15:32.757Z,2.41
2022-12-04T19:18:00.565Z,2.21
2022-12-04T19:20:27.993Z,2.39
2022-12-04T19:23:08.297Z,2.26
2022-12-04T19:25:35.314Z,2.28
2022-12-04T19:28:03.049Z,1.98
2022-12-04T19:30:34.647Z,2.16
2022-12-04T19:33:07.888Z,2.56
2022-12-04T19:35:36.372Z,3.03
2022-12-04T19:38:03.576Z,3.21
2022-12-04T19:40:30.508Z,3.45
2022-12-04T19:43:02.644Z,3.66
2022-12-04T19:45:30.067Z,3.66
2022-12-04T19:47:58.284Z,3.42
2022-12-04T19:50:28.144Z,3.03
2022-12-04T19:52:55.302Z,2.94
2022-12-04T19:55:23.314Z,2.89
2022-12-04T19:57:52.034Z,3.03
2022-12-04T20:00:20.192Z,2.78
2022-12-04T20:02:47.236Z,2.69
2022-12-04T20:05:14.473Z,2.87
2022-12-04T20:07:43.328Z,2.97
2022-12-04T20:10:12.686Z,2.79
2022-12-04T20:12:41.776Z,2.84
2022-12-04T20:15:09.306Z,2.88
2022-12-04T20:17:36.100Z,2.75
2022-12-04T20:20:03.446Z,2.66
2022-12-04T20:22:31.202Z,2.51
2022-12-04T20:24:58.929Z,2.77
2022-12-04T20:27:25.877Z,2.58
2022-12-04T20:29:54.017Z,2.52
2022-12-04T20:32:21.122Z,2.70
2022-12-04T20:34:48.459Z,2.49
2022-12-04T20:37:15.601Z,2.48
2022-12-04T20:39:50.095Z,2.50
2022-12-04T20:42:17.626Z,2.51
2022-12-04T20:44:45.183Z,2.26
2022-12-04T20:47:12.991Z,2.21
2022-12-04T20:49:39.796Z,2.45
2022-12-04T20:52:06.793Z,2.35
2022-12-04T20:54:40.790Z,2.51
2022-12-04T20:57:08.036Z,2.57
2022-12-04T20:59:34.907Z,2.24
2022-12-04T21:02:04.453Z,2.21
2022-12-04T21:04:32.494Z,2.43
2022-12-04T21:06:59.522Z,2.53
2022-12-04T21:09:26.682Z,2.44
2022-12-04T21:11:54.313Z,2.57
2022-12-04T21:14:22.826Z,2.53
2022-12-04T21:16:49.199Z,2.58
2022-12-04T21:19:16.053Z,2.34
2022-12-04T21:21:43.403Z,2.33
2022-12-04T21:24:09.848Z,2.61
2022-12-04T21:26:36.226Z,2.24
2022-12-04T21:29:03.391Z,2.26
2022-12-04T21:31:29.963Z,2.40
2022-12-04T21:33:56.403Z,2.57
2022-12-04T21:36:22.856Z,2.54
2022-12-04T21:38:49.234Z,2.74
2022-12-04T21:41:15.810Z,2.65
2022-12-04T21:43:42.558Z,2.45
2022-12-04T21:46:09.680Z,2.53
2022-12-04T21:48:37.893Z,2.71
2022-12-04T21:51:04.416Z,2.71
2022-12-04T21:53:30.891Z,2.78
2022-12-04T21:55:57.311Z,2.93
2022-12-04T21:58:23.844Z,2.86
2022-12-04T22:00:50.288Z,2.82
2022-12-04T22:03:16.823Z,2.75
2022-12-04T22:05:45.007Z,2.77
2022-12-04T22:08:11.462Z,2.80
2022-12-04T22:10:38.355Z,2.77
2022-12-04T22:13:06.849Z,2.62
2022-12-04T22:15:36.805Z,2.23
2022-12-04T22:18:05.853Z,2.46
2022-12-04T22:20:32.598Z,2.21
2022-12-04T22:22:59.053Z,2.39
2022-12-04T22:25:25.424Z,2.46
2022-12-04T22:27:52.095Z,2.40
2022-12-04T22:30:23.656Z,2.10
2022-12-04T22:32:53.361Z,2.40
2022-12-04T22:35:22.363Z,2.22
2022-12-04T22:37:48.863Z,2.06
2022-12-04T22:40:15.463Z,2.04
2022-12-04T22:42:41.973Z,2.11
2022-12-04T22:45:08.391Z,1.93
2022-12-04T22:47:35.037Z,2.07
2022-12-04T22:50:01.974Z,1.64
2022-12-04T22:52:28.641Z,1.96
2022-12-04T22:54:55.088Z,1.69
2022-12-04T22:57:21.523Z,2.02
2022-12-04T22:59:50.227Z,1.95
2022-12-04T23:02:16.675Z,2.22
2022-12-04T23:04:43.287Z,2.43
2022-12-04T23:07:12.018Z,2.04
2022-12-04T23:09:38.893Z,2.06
2022-12-04T23:12:05.259Z,2.20
2022-12-04T23:14:31.690Z,2.15
2022-12-04T23:16:58.255Z,2.23
2022-12-04T23:19:25.821Z,2.46
2022-12-04T23:21:57.268Z,2.18
2022-12-04T23:24:23.935Z,2.29
2022-12-04T23:26:52.801Z,2.40
2022-12-04T23:29:44.815Z,2.61
2022-12-04T23:32:07.177Z,2.43
2022-12-04T23:34:33.718Z,2.47
2022-12-04T23:37:00.173Z,2.54
2022-12-04T23:39:26.896Z,2.14
2022-12-04T23:41:53.380Z,2.32
2022-12-04T23:44:21.012Z,2.31
2022-12-04T23:46:47.613Z,2.14
2022-12-04T23:49:23.166Z,2.42
2022-12-04T23:51:49.680Z,2.18
2022-12-04T23:54:21.360Z,2.33
2022-12-04T23:56:47.800Z,2.15
2022-12-04T23:59:14.465Z,2.41
